Time;durP1;ratioP1;P1;durP2;ratioP2;P2;SDS_P1;SDS_P2;PMS_P1;PMS_P2;Temp;Humidity;BMP_temperature;BMP_pressure;BME280_temperature;BME280_humidity;BME280_pressure;Samples;Min_cycle;Max_cycle;Signal;HPM_P1;HPM_P2
2023/01/23 00:02:59;;;;;;;48.43;23.83;;;1.80;99.90;;;;;;5023054;28;20300;-64
2023/01/23 00:05:28;;;;;;;53.07;24.60;;;1.80;99.90;;;;;;5023083;28;20673;-64
2023/01/23 00:07:56;;;;;;;46.97;23.60;;;1.70;99.90;;;;;;5024344;28;20671;-64
2023/01/23 00:10:24;;;;;;;51.13;23.23;;;1.80;99.90;;;;;;5023784;28;20236;-64
2023/01/23 00:12:53;;;;;;;46.93;24.10;;;1.70;99.90;;;;;;4998794;28;20564;-64
2023/01/23 00:15:23;;;;;;;47.20;23.93;;;1.80;99.90;;;;;;5022224;28;20224;-64
2023/01/23 00:17:51;;;;;;;45.63;24.33;;;1.80;99.90;;;;;;5029590;28;20205;-64
2023/01/23 00:20:19;;;;;;;51.33;24.80;;;1.80;99.90;;;;;;5035128;28;20200;-64
2023/01/23 00:22:48;;;;;;;52.50;24.43;;;1.80;99.90;;;;;;5030223;28;20204;-64
2023/01/23 00:25:17;;;;;;;49.27;24.40;;;1.80;99.90;;;;;;5025294;28;20210;-64
2023/01/23 00:27:45;;;;;;;54.10;23.23;;;1.80;99.90;;;;;;5030742;28;20193;-64
2023/01/23 00:30:14;;;;;;;49.17;25.20;;;1.80;99.90;;;;;;5022232;28;20197;-63
2023/01/23 00:32:45;;;;;;;48.60;24.63;;;1.80;99.90;;;;;;5027377;28;20608;-64
2023/01/23 00:35:13;;;;;;;47.73;23.87;;;1.80;99.90;;;;;;5026244;28;20287;-64
2023/01/23 00:37:41;;;;;;;48.00;24.63;;;1.80;99.90;;;;;;5024373;28;20208;-64
2023/01/23 00:40:12;;;;;;;54.90;25.00;;;1.80;99.90;;;;;;5028338;28;20652;-64
2023/01/23 00:42:40;;;;;;;52.60;25.77;;;1.80;99.90;;;;;;5022052;28;20198;-64
2023/01/23 00:45:09;;;;;;;56.07;26.40;;;1.80;99.90;;;;;;5028247;28;20263;-63
2023/01/23 00:47:37;;;;;;;55.73;26.07;;;1.80;99.90;;;;;;5030068;28;20193;-64
2023/01/23 00:50:08;;;;;;;57.27;26.13;;;1.80;99.90;;;;;;5020433;28;20186;-64
2023/01/23 00:52:36;;;;;;;57.17;26.07;;;1.80;99.90;;;;;;5012164;28;20194;-64
2023/01/23 00:55:06;;;;;;;54.03;24.87;;;1.80;99.90;;;;;;5020359;28;20193;-64
2023/01/23 00:57:34;;;;;;;61.27;24.80;;;1.80;99.90;;;;;;5022441;28;20194;-64
2023/01/23 01:00:04;;;;;;;57.87;25.90;;;1.80;99.90;;;;;;5029045;28;20358;-64
2023/01/23 01:02:32;;;;;;;57.60;26.87;;;1.80;99.90;;;;;;5025716;28;20224;-64
2023/01/23 01:05:00;;;;;;;56.63;26.07;;;1.80;99.90;;;;;;5026707;28;20226;-64
2023/01/23 01:07:30;;;;;;;53.10;25.57;;;1.80;99.90;;;;;;5023113;28;20229;-64
2023/01/23 01:09:58;;;;;;;59.07;26.20;;;1.80;99.90;;;;;;5020785;28;20198;-64
2023/01/23 01:12:26;;;;;;;52.67;25.37;;;1.80;99.90;;;;;;5019744;28;20206;-64
2023/01/23 01:14:55;;;;;;;55.90;26.03;;;1.80;99.90;;;;;;5028944;28;20691;-64
2023/01/23 01:17:24;;;;;;;54.40;25.77;;;1.80;99.90;;;;;;5032674;28;20674;-64
2023/01/23 01:19:52;;;;;;;57.30;25.83;;;1.80;99.90;;;;;;5022493;28;20537;-64
2023/01/23 01:22:20;;;;;;;60.53;26.57;;;1.80;99.90;;;;;;5023391;28;20182;-64
2023/01/23 01:24:50;;;;;;;58.10;26.30;;;1.70;99.90;;;;;;5031293;28;20220;-64
2023/01/23 01:27:18;;;;;;;56.37;26.27;;;1.70;99.90;;;;;;5032962;28;20193;-64
2023/01/23 01:29:46;;;;;;;59.80;26.40;;;1.70;99.90;;;;;;5027123;28;20202;-64
2023/01/23 01:32:15;;;;;;;53.87;25.60;;;1.70;99.90;;;;;;5021664;28;20280;-64
2023/01/23 01:34:43;;;;;;;54.60;26.07;;;1.70;99.90;;;;;;5027008;28;20280;-64
2023/01/23 01:37:11;;;;;;;62.10;26.10;;;1.70;99.90;;;;;;5022613;28;20656;-64
2023/01/23 01:39:39;;;;;;;52.67;25.30;;;1.80;99.90;;;;;;5018951;28;20209;-64
2023/01/23 01:42:09;;;;;;;60.10;26.97;;;1.80;99.90;;;;;;5023102;28;20190;-64
2023/01/23 01:44:53;;;;;;;59.10;26.43;;;1.80;99.90;;;;;;5026679;28;20209;-64
2023/01/23 01:47:22;;;;;;;55.93;25.80;;;1.70;99.90;;;;;;5023197;28;20193;-64
2023/01/23 01:49:54;;;;;;;52.40;25.57;;;1.70;99.90;;;;;;5029687;28;20202;-64
2023/01/23 01:52:23;;;;;;;57.30;25.70;;;1.70;99.90;;;;;;5020986;28;20205;-64
2023/01/23 01:54:55;;;;;;;56.83;26.70;;;1.70;99.90;;;;;;5026271;28;20204;-64
2023/01/23 01:57:29;;;;;;;54.30;24.77;;;1.60;99.90;;;;;;5017895;28;20284;-64
2023/01/23 02:00:03;;;;;;;59.30;25.60;;;1.60;99.90;;;;;;5022580;28;20214;-64
2023/01/23 02:02:35;;;;;;;57.90;26.33;;;1.70;99.90;;;;;;5022427;28;20205;-63
2023/01/23 02:05:07;;;;;;;52.30;25.13;;;1.60;99.90;;;;;;5029303;28;20220;-64
2023/01/23 02:07:39;;;;;;;56.27;26.77;;;1.70;99.90;;;;;;5018761;28;20234;-64
2023/01/23 02:10:10;;;;;;;62.53;26.87;;;1.60;99.90;;;;;;5027933;28;20208;-64
2023/01/23 02:12:40;;;;;;;59.20;25.63;;;1.70;99.90;;;;;;5022146;28;20196;-64
2023/01/23 02:15:09;;;;;;;60.33;26.03;;;1.60;99.90;;;;;;5028323;28;20194;-64
2023/01/23 02:17:38;;;;;;;56.70;25.53;;;1.60;99.90;;;;;;5030523;28;20202;-64
2023/01/23 02:20:13;;;;;;;53.33;25.07;;;1.70;99.90;;;;;;5036406;28;20204;-64
2023/01/23 02:22:49;;;;;;;59.80;25.87;;;1.70;99.90;;;;;;5021385;28;20855;-63
2023/01/23 02:25:22;;;;;;;57.60;25.07;;;1.70;99.90;;;;;;5021501;28;20209;-63
2023/01/23 02:27:52;;;;;;;60.00;26.00;;;1.70;99.90;;;;;;5023491;28;20205;-63
2023/01/23 02:30:21;;;;;;;55.17;25.43;;;1.60;99.90;;;;;;5023952;28;20202;-64
2023/01/23 02:32:49;;;;;;;60.20;26.13;;;1.70;99.90;;;;;;5017897;28;20221;-64
2023/01/23 02:35:25;;;;;;;55.23;25.43;;;1.70;99.90;;;;;;5025629;28;20193;-64
2023/01/23 02:37:56;;;;;;;57.80;25.90;;;1.70;99.90;;;;;;5020456;28;20193;-64
2023/01/23 02:40:32;;;;;;;48.73;25.43;;;1.70;99.90;;;;;;5022697;28;20644;-64
2023/01/23 02:43:02;;;;;;;50.63;24.43;;;1.70;99.90;;;;;;5020149;28;20182;-63
2023/01/23 02:45:31;;;;;;;56.37;26.27;;;1.70;99.90;;;;;;5027055;28;20210;-64
2023/01/23 02:48:00;;;;;;;59.57;26.97;;;1.70;99.90;;;;;;5014557;28;20213;-64
2023/01/23 02:50:29;;;;;;;58.63;26.50;;;1.70;99.90;;;;;;5026625;28;20221;-64
2023/01/23 02:52:57;;;;;;;52.10;25.20;;;1.70;99.90;;;;;;5022858;28;20213;-64
2023/01/23 02:55:28;;;;;;;58.57;26.93;;;1.70;99.90;;;;;;5023787;28;20198;-64
2023/01/23 03:00:14;;;;;;;51.80;24.40;;;1.80;99.90;;;;;;5023210;28;20237;-64
2023/01/23 03:00:51;;;;;;;56.40;24.90;;;1.80;99.90;;;;;;5019994;28;20217;-64
2023/01/23 03:03:20;;;;;;;53.43;25.33;;;1.80;99.90;;;;;;5023744;28;20204;-63
2023/01/23 03:05:49;;;;;;;57.77;25.60;;;1.80;99.90;;;;;;5020053;28;20221;-64
2023/01/23 03:08:17;;;;;;;60.70;26.63;;;1.80;99.90;;;;;;5014896;28;20263;-64
2023/01/23 03:10:45;;;;;;;56.67;26.10;;;1.80;99.90;;;;;;5025760;28;20225;-63
2023/01/23 03:13:13;;;;;;;67.00;27.97;;;1.80;99.90;;;;;;5025959;28;21047;-63
2023/01/23 03:15:43;;;;;;;61.70;25.37;;;1.70;99.90;;;;;;5026120;28;20232;-64
2023/01/23 03:18:13;;;;;;;57.43;26.80;;;1.80;99.90;;;;;;5017106;28;20201;-64
2023/01/23 03:20:42;;;;;;;55.83;25.53;;;1.70;99.90;;;;;;5018376;28;20899;-64
2023/01/23 03:23:10;;;;;;;55.43;24.83;;;1.80;99.90;;;;;;5023658;28;20825;-63
2023/01/23 03:25:43;;;;;;;56.57;25.40;;;1.80;99.90;;;;;;5020131;28;20206;-63
2023/01/23 03:30:12;;;;;;;55.77;25.63;;;1.80;99.90;;;;;;5023557;28;20278;-64
2023/01/23 03:31:00;;;;;;;64.87;27.07;;;1.80;99.90;;;;;;5009943;28;20620;-64
2023/01/23 03:33:30;;;;;;;56.80;26.43;;;1.80;99.90;;;;;;5024679;28;20263;-63
2023/01/23 03:35:58;;;;;;;56.57;25.43;;;1.80;99.90;;;;;;5019898;28;20204;-64
2023/01/23 03:38:27;;;;;;;55.60;26.50;;;1.80;99.90;;;;;;5027580;28;20197;-64
2023/01/23 03:43:41;;;;;;;60.60;26.07;;;1.80;99.90;;;;;;5021297;28;21728;-64
2023/01/23 03:46:09;;;;;;;60.63;26.57;;;1.80;99.90;;;;;;5018604;28;20279;-64
2023/01/23 03:48:39;;;;;;;62.90;26.77;;;1.80;99.90;;;;;;5025144;28;20193;-63
2023/01/23 03:51:07;;;;;;;57.60;25.93;;;1.80;99.90;;;;;;5018170;28;20200;-64
2023/01/23 03:53:36;;;;;;;59.27;25.80;;;1.80;99.90;;;;;;5030629;28;20209;-64
2023/01/23 03:56:05;;;;;;;57.33;25.80;;;1.80;99.90;;;;;;5023278;28;20190;-64
2023/01/23 03:58:33;;;;;;;55.80;26.07;;;1.80;99.90;;;;;;5023323;28;20215;-64
2023/01/23 04:01:06;;;;;;;59.00;26.80;;;1.90;99.90;;;;;;5025073;28;20185;-64
2023/01/23 04:03:34;;;;;;;62.30;25.87;;;1.80;99.90;;;;;;5021949;28;20201;-63
2023/01/23 04:06:05;;;;;;;58.77;25.73;;;1.80;99.90;;;;;;5029353;28;20213;-64
2023/01/23 04:08:33;;;;;;;58.43;26.40;;;1.80;99.90;;;;;;5027304;28;20225;-64
2023/01/23 04:11:03;;;;;;;59.80;26.33;;;1.80;99.90;;;;;;5021225;28;20202;-64
2023/01/23 04:13:32;;;;;;;55.47;26.40;;;1.80;99.90;;;;;;5029614;28;20656;-64
2023/01/23 04:16:00;;;;;;;53.00;24.17;;;1.80;99.90;;;;;;5016457;28;20228;-64
2023/01/23 04:18:29;;;;;;;56.10;25.80;;;1.80;99.90;;;;;;5028034;28;20333;-64
2023/01/23 04:20:58;;;;;;;61.03;25.63;;;1.80;99.90;;;;;;5024852;28;20200;-64
2023/01/23 04:23:27;;;;;;;59.10;26.83;;;1.80;99.90;;;;;;5020471;28;20194;-64
2023/01/23 04:25:55;;;;;;;59.73;26.07;;;1.80;99.90;;;;;;5030237;28;20209;-64
2023/01/23 04:28:24;;;;;;;56.87;25.70;;;1.80;99.90;;;;;;5024483;28;20199;-64
2023/01/23 04:30:53;;;;;;;64.70;26.63;;;1.80;99.90;;;;;;5026203;28;20656;-64
2023/01/23 04:33:22;;;;;;;53.97;25.37;;;1.80;99.90;;;;;;5022731;28;20197;-64
2023/01/23 04:35:53;;;;;;;54.97;25.30;;;1.80;99.90;;;;;;5030287;28;20276;-64
2023/01/23 04:38:21;;;;;;;61.43;25.57;;;1.90;99.90;;;;;;5022839;28;20194;-64
2023/01/23 04:40:51;;;;;;;59.37;25.97;;;1.90;99.90;;;;;;5025989;28;20213;-64
2023/01/23 04:43:20;;;;;;;58.80;26.17;;;2.00;99.90;;;;;;5027061;28;20228;-64
2023/01/23 04:45:50;;;;;;;62.83;25.80;;;1.90;99.90;;;;;;5005094;28;20217;-64
2023/01/23 04:48:18;;;;;;;53.70;25.63;;;1.90;99.90;;;;;;5023315;28;20223;-64
2023/01/23 04:50:47;;;;;;;60.07;26.83;;;1.90;99.90;;;;;;5038329;28;20205;-64
2023/01/23 04:53:16;;;;;;;59.80;25.43;;;1.90;99.90;;;;;;5035378;28;20213;-64
2023/01/23 04:55:47;;;;;;;61.23;26.03;;;1.90;99.90;;;;;;5022295;28;20259;-64
2023/01/23 04:58:18;;;;;;;60.87;26.87;;;1.80;99.90;;;;;;5017925;28;20229;-64
2023/01/23 05:00:47;;;;;;;64.73;26.97;;;1.80;99.90;;;;;;5019009;28;20806;-64
2023/01/23 05:03:24;;;;;;;59.30;25.60;;;1.80;99.90;;;;;;5020350;28;20197;-64
2023/01/23 05:05:52;;;;;;;59.20;26.20;;;1.90;99.90;;;;;;5035916;28;20269;-64
2023/01/23 05:08:21;;;;;;;64.40;25.70;;;1.80;99.90;;;;;;5021578;28;20561;-64
2023/01/23 05:10:49;;;;;;;54.97;24.90;;;1.90;99.90;;;;;;5024991;28;20631;-64
2023/01/23 05:13:18;;;;;;;60.27;27.70;;;1.90;99.90;;;;;;5022862;28;20205;-64
2023/01/23 05:15:47;;;;;;;60.67;27.03;;;1.90;99.90;;;;;;5025203;28;20202;-64
2023/01/23 05:18:15;;;;;;;60.10;26.97;;;1.90;99.90;;;;;;5024336;28;20592;-64
2023/01/23 05:20:43;;;;;;;62.17;27.90;;;1.90;99.90;;;;;;5001134;28;20193;-64
2023/01/23 05:23:12;;;;;;;67.30;28.03;;;1.90;99.90;;;;;;5017372;28;20205;-63
2023/01/23 05:25:40;;;;;;;65.30;27.57;;;1.90;99.90;;;;;;5023734;28;20198;-64
2023/01/23 05:28:08;;;;;;;60.40;27.73;;;1.90;99.90;;;;;;5021139;28;20711;-64
2023/01/23 05:30:40;;;;;;;67.10;28.60;;;1.90;99.90;;;;;;5025812;28;20205;-64
2023/01/23 05:33:11;;;;;;;61.83;26.47;;;1.90;99.90;;;;;;5026353;28;20200;-63
2023/01/23 05:35:40;;;;;;;64.10;26.60;;;1.80;99.90;;;;;;5025788;28;20194;-64
2023/01/23 05:38:09;;;;;;;60.43;26.80;;;1.90;99.90;;;;;;5019478;28;20190;-64
2023/01/23 05:40:38;;;;;;;68.33;28.43;;;1.90;99.90;;;;;;5019723;28;20205;-64
2023/01/23 05:43:06;;;;;;;66.93;28.57;;;1.90;99.90;;;;;;5024825;28;20204;-64
2023/01/23 05:45:34;;;;;;;58.43;25.97;;;1.90;99.90;;;;;;5019019;28;20653;-64
2023/01/23 05:48:05;;;;;;;66.23;28.43;;;1.90;99.90;;;;;;5022802;28;20225;-64
2023/01/23 05:50:33;;;;;;;67.60;27.83;;;1.90;99.90;;;;;;5021388;28;21810;-64
2023/01/23 05:53:01;;;;;;;65.67;27.87;;;1.90;99.90;;;;;;5026342;28;20201;-64
2023/01/23 05:55:30;;;;;;;74.53;29.67;;;1.90;99.90;;;;;;5021614;28;20560;-64
2023/01/23 05:57:58;;;;;;;74.80;28.83;;;2.00;99.90;;;;;;5028744;28;20209;-64
2023/01/23 06:00:27;;;;;;;73.50;27.97;;;2.00;99.90;;;;;;5019583;28;20391;-64
2023/01/23 06:02:55;;;;;;;63.93;28.37;;;1.90;99.90;;;;;;5024585;28;20303;-64
2023/01/23 06:05:25;;;;;;;61.20;27.77;;;2.00;99.90;;;;;;5020721;28;20221;-64
2023/01/23 06:07:53;;;;;;;72.53;29.63;;;2.00;99.90;;;;;;5022726;28;20675;-64
2023/01/23 06:10:22;;;;;;;67.47;27.07;;;2.00;99.90;;;;;;5031831;28;20196;-64
2023/01/23 06:12:50;;;;;;;76.70;29.23;;;2.00;99.90;;;;;;5020635;28;20536;-64
2023/01/23 06:15:20;;;;;;;66.50;28.80;;;2.00;99.90;;;;;;5039184;28;20304;-64
2023/01/23 06:17:49;;;;;;;72.87;29.07;;;2.00;99.90;;;;;;5015761;28;20198;-64
2023/01/23 06:20:17;;;;;;;74.07;29.57;;;2.00;99.90;;;;;;5024989;28;20194;-64
2023/01/23 06:22:47;;;;;;;67.40;28.30;;;2.00;99.90;;;;;;5025040;28;20646;-64
2023/01/23 06:25:17;;;;;;;68.93;29.17;;;2.00;99.90;;;;;;5018458;28;20532;-64
2023/01/23 06:27:45;;;;;;;75.37;27.80;;;2.00;99.90;;;;;;5018855;28;20652;-64
2023/01/23 06:30:14;;;;;;;72.50;28.13;;;2.00;99.90;;;;;;5021605;28;20210;-64
2023/01/23 06:32:42;;;;;;;65.77;28.33;;;2.00;99.90;;;;;;5016510;28;20220;-64
2023/01/23 06:35:10;;;;;;;63.60;28.70;;;2.00;99.90;;;;;;5019838;28;20204;-64
2023/01/23 06:37:39;;;;;;;67.80;29.47;;;2.00;99.90;;;;;;5018471;28;20650;-64
2023/01/23 06:40:12;;;;;;;68.10;29.37;;;2.00;99.90;;;;;;5015211;28;20202;-64
2023/01/23 06:42:40;;;;;;;60.27;27.20;;;2.00;99.90;;;;;;5018192;28;20595;-63
2023/01/23 06:45:10;;;;;;;67.33;28.20;;;2.00;99.90;;;;;;5016234;28;20198;-64
2023/01/23 06:47:38;;;;;;;64.80;27.80;;;2.00;99.90;;;;;;5019104;28;20304;-64
2023/01/23 06:50:08;;;;;;;71.97;27.57;;;2.00;99.90;;;;;;5023549;28;20198;-64
2023/01/23 06:52:36;;;;;;;71.93;28.83;;;2.00;99.90;;;;;;5025749;28;20197;-64
2023/01/23 06:55:05;;;;;;;67.03;27.27;;;2.10;99.90;;;;;;5019992;28;20784;-64
2023/01/23 06:57:35;;;;;;;65.90;28.87;;;2.10;99.90;;;;;;5017504;28;20201;-64
2023/01/23 07:00:04;;;;;;;69.13;28.93;;;2.10;99.90;;;;;;5018732;28;20204;-64
2023/01/23 07:02:33;;;;;;;70.10;27.97;;;2.10;99.90;;;;;;5020900;28;20201;-64
2023/01/23 07:05:01;;;;;;;71.33;28.73;;;2.10;99.90;;;;;;5017294;28;20260;-64
2023/01/23 07:07:29;;;;;;;70.23;28.47;;;2.10;99.90;;;;;;5018814;28;20234;-64
2023/01/23 07:09:58;;;;;;;65.90;27.13;;;2.10;99.90;;;;;;5021619;28;20208;-64
2023/01/23 07:12:26;;;;;;;75.10;29.70;;;2.10;99.90;;;;;;5021411;28;20198;-64
2023/01/23 07:14:56;;;;;;;72.23;29.17;;;2.10;99.90;;;;;;5030752;28;20201;-64
2023/01/23 07:17:24;;;;;;;66.97;27.53;;;2.10;99.90;;;;;;5017479;28;20193;-64
2023/01/23 07:19:53;;;;;;;64.57;27.43;;;2.10;99.90;;;;;;5023655;28;20232;-64
2023/01/23 07:22:22;;;;;;;75.07;28.47;;;2.10;99.90;;;;;;5019899;28;20185;-63
2023/01/23 07:24:51;;;;;;;71.00;29.07;;;2.10;99.90;;;;;;5024994;28;20198;-64
2023/01/23 07:27:19;;;;;;;71.90;28.30;;;2.10;99.90;;;;;;5023502;28;20548;-64
2023/01/23 07:29:47;;;;;;;75.10;29.07;;;2.10;99.90;;;;;;5018437;28;20198;-64
2023/01/23 07:32:17;;;;;;;65.70;27.70;;;2.10;99.90;;;;;;5016265;28;20204;-64
2023/01/23 07:34:46;;;;;;;69.70;27.80;;;2.00;99.90;;;;;;5023353;28;20533;-64
2023/01/23 07:37:14;;;;;;;70.67;27.80;;;2.00;99.90;;;;;;5034975;28;20232;-64
2023/01/23 07:39:42;;;;;;;74.90;27.37;;;2.00;99.90;;;;;;5019428;28;20196;-64
2023/01/23 07:42:11;;;;;;;78.67;29.50;;;2.10;99.90;;;;;;5017657;28;20209;-63
2023/01/23 07:44:39;;;;;;;71.07;28.80;;;2.10;99.90;;;;;;5015914;28;20205;-64
2023/01/23 07:47:07;;;;;;;69.93;26.77;;;2.10;99.90;;;;;;5022373;28;20220;-63
2023/01/23 07:49:37;;;;;;;67.07;27.07;;;2.10;99.90;;;;;;5017113;28;20228;-64
2023/01/23 07:52:05;;;;;;;71.30;28.60;;;2.10;99.90;;;;;;5020306;28;20204;-63
2023/01/23 07:54:34;;;;;;;78.33;29.53;;;2.10;99.90;;;;;;5018724;28;20194;-64
2023/01/23 07:57:02;;;;;;;72.97;28.40;;;2.10;99.90;;;;;;5020607;28;20212;-63
2023/01/23 07:59:30;;;;;;;72.00;29.07;;;2.10;99.90;;;;;;5020919;28;20552;-64
2023/01/23 08:01:59;;;;;;;67.13;28.03;;;2.10;99.90;;;;;;5031679;28;20714;-64
2023/01/23 08:04:27;;;;;;;74.10;28.60;;;2.20;99.90;;;;;;5024148;28;20190;-63
2023/01/23 08:06:57;;;;;;;69.70;28.10;;;2.10;99.90;;;;;;5033231;28;20284;-64
2023/01/23 08:09:25;;;;;;;70.37;29.67;;;2.10;99.90;;;;;;5014748;28;20217;-63
2023/01/23 08:11:54;;;;;;;68.20;27.40;;;2.10;99.90;;;;;;5016793;28;20194;-63
2023/01/23 08:14:22;;;;;;;70.07;27.77;;;2.10;99.90;;;;;;5019215;28;21010;-64
2023/01/23 08:16:52;;;;;;;73.40;27.87;;;2.20;99.90;;;;;;5019173;28;20211;-64
2023/01/23 08:19:20;;;;;;;77.57;29.67;;;2.20;99.90;;;;;;5019827;28;20192;-63
2023/01/23 08:21:48;;;;;;;72.10;27.87;;;2.20;99.90;;;;;;5014530;28;20190;-64
2023/01/23 08:24:18;;;;;;;72.67;30.00;;;2.20;99.90;;;;;;5021667;28;20197;-64
2023/01/23 08:26:46;;;;;;;78.40;30.13;;;2.20;99.90;;;;;;5018632;28;20205;-63
2023/01/23 08:29:15;;;;;;;77.97;29.50;;;2.20;99.90;;;;;;5018149;28;20591;-63
2023/01/23 08:31:43;;;;;;;69.57;27.27;;;2.20;99.90;;;;;;5018989;28;20193;-63
2023/01/23 08:34:11;;;;;;;73.10;28.00;;;2.20;99.90;;;;;;5018847;28;20280;-64
2023/01/23 08:36:40;;;;;;;66.90;27.07;;;2.30;99.90;;;;;;5012021;28;20471;-63
2023/01/23 08:39:08;;;;;;;65.40;28.43;;;2.20;99.90;;;;;;5033765;28;20627;-63
2023/01/23 08:41:38;;;;;;;75.53;28.77;;;2.30;99.90;;;;;;5030781;28;20200;-64
2023/01/23 08:44:06;;;;;;;73.13;28.87;;;2.30;99.90;;;;;;5028116;28;20544;-64
2023/01/23 08:46:34;;;;;;;72.17;29.90;;;2.30;99.90;;;;;;5016406;28;20494;-64
2023/01/23 08:49:03;;;;;;;68.87;28.90;;;2.30;99.90;;;;;;5019388;28;21084;-63
2023/01/23 08:51:32;;;;;;;69.03;28.37;;;2.30;99.90;;;;;;5026828;28;20205;-64
2023/01/23 08:54:00;;;;;;;68.87;28.37;;;2.30;99.90;;;;;;5025046;28;20216;-64
2023/01/23 08:56:28;;;;;;;76.90;28.33;;;2.30;99.90;;;;;;5028040;28;20194;-64
2023/01/23 08:58:58;;;;;;;70.67;29.07;;;2.40;99.90;;;;;;5024115;28;20722;-64
2023/01/23 09:01:27;;;;;;;75.83;29.43;;;2.40;99.90;;;;;;5027026;28;20194;-63
2023/01/23 09:03:56;;;;;;;64.27;27.80;;;2.40;99.90;;;;;;5023893;28;20727;-63
2023/01/23 09:06:25;;;;;;;67.40;27.40;;;2.50;99.90;;;;;;5020664;28;20189;-64
2023/01/23 09:08:53;;;;;;;65.60;27.37;;;2.50;99.90;;;;;;5018788;28;20223;-64
2023/01/23 09:11:22;;;;;;;66.33;27.93;;;2.50;99.90;;;;;;5024141;28;20217;-64
2023/01/23 09:13:51;;;;;;;68.33;28.03;;;2.50;99.90;;;;;;5021394;28;20267;-64
2023/01/23 09:16:22;;;;;;;71.37;29.13;;;2.50;99.90;;;;;;5021406;28;20289;-63
2023/01/23 09:18:50;;;;;;;79.27;28.60;;;2.60;99.90;;;;;;5023296;28;21112;-64
2023/01/23 09:21:19;;;;;;;74.67;28.17;;;2.60;99.90;;;;;;5022974;28;20698;-63
2023/01/23 09:23:47;;;;;;;75.73;28.93;;;2.60;99.90;;;;;;5023732;28;20193;-63
2023/01/23 09:26:15;;;;;;;69.60;28.63;;;2.70;99.90;;;;;;5019749;28;20209;-63
2023/01/23 09:28:46;;;;;;;72.37;28.53;;;2.60;99.90;;;;;;5021709;28;20214;-63
2023/01/23 09:31:15;;;;;;;68.07;28.10;;;2.70;99.90;;;;;;5021417;28;20221;-64
2023/01/23 09:33:48;;;;;;;70.00;29.10;;;2.70;99.90;;;;;;5020084;28;20614;-64
2023/01/23 09:36:17;;;;;;;78.23;30.10;;;2.80;99.90;;;;;;5018612;28;20201;-64
2023/01/23 09:38:48;;;;;;;67.97;28.17;;;2.80;99.90;;;;;;5021968;28;20194;-64
2023/01/23 09:41:19;;;;;;;75.27;30.00;;;2.80;99.90;;;;;;5020759;28;20640;-64
2023/01/23 09:43:57;;;;;;;77.00;30.60;;;2.90;99.90;;;;;;5020315;28;20280;-63
2023/01/23 09:46:29;;;;;;;82.10;30.27;;;2.90;99.90;;;;;;5018751;28;20645;-64
2023/01/23 09:49:06;;;;;;;70.03;28.57;;;2.80;99.90;;;;;;5027202;28;20707;-64
2023/01/23 09:51:51;;;;;;;77.57;28.60;;;2.90;99.90;;;;;;5022731;28;20223;-63
2023/01/23 09:54:32;;;;;;;69.77;28.87;;;2.90;99.90;;;;;;5021051;28;20197;-64
2023/01/23 09:57:04;;;;;;;73.87;28.63;;;2.90;99.90;;;;;;5023621;28;20193;-63
2023/01/23 09:59:37;;;;;;;69.07;28.30;;;2.90;99.90;;;;;;5023129;28;20220;-64
2023/01/23 10:02:25;;;;;;;77.80;28.93;;;3.00;99.90;;;;;;5021528;28;21485;-64
2023/01/23 10:04:57;;;;;;;62.43;26.63;;;3.00;99.90;;;;;;5029406;28;20240;-64
2023/01/23 10:07:41;;;;;;;67.47;27.40;;;3.00;99.90;;;;;;5030928;28;20237;-64
2023/01/23 10:10:40;;;;;;;62.80;27.50;;;3.10;99.90;;;;;;5023167;28;20217;-64
2023/01/23 10:13:15;;;;;;;61.67;27.53;;;3.10;99.90;;;;;;5026381;28;20197;-64
2023/01/23 10:16:05;;;;;;;57.47;25.73;;;3.20;99.90;;;;;;5024753;28;20197;-64
2023/01/23 10:18:39;;;;;;;60.37;26.83;;;3.20;99.90;;;;;;5015193;28;20194;-64
2023/01/23 10:21:21;;;;;;;57.77;25.20;;;3.20;99.90;;;;;;5024693;28;20640;-64
2023/01/23 10:23:59;;;;;;;58.80;26.17;;;3.30;99.90;;;;;;5030994;28;20315;-64
2023/01/23 10:26:31;;;;;;;56.60;25.60;;;3.30;99.90;;;;;;5031487;28;20201;-63
2023/01/23 10:29:03;;;;;;;56.83;26.00;;;3.40;99.90;;;;;;5021133;28;20210;-63
2023/01/23 10:31:39;;;;;;;57.77;25.83;;;3.40;99.90;;;;;;5013181;28;20195;-64
2023/01/23 10:34:18;;;;;;;54.67;25.90;;;3.40;99.90;;;;;;5023132;28;20295;-64
2023/01/23 10:37:02;;;;;;;56.10;25.70;;;3.50;99.90;;;;;;5021403;28;20197;-64
2023/01/23 10:39:41;;;;;;;48.03;22.70;;;3.70;99.90;;;;;;5021366;28;20552;-64
2023/01/23 10:42:12;;;;;;;53.57;24.73;;;3.60;99.90;;;;;;5023136;28;20276;-64
2023/01/23 10:44:40;;;;;;;53.90;25.00;;;3.60;99.90;;;;;;5018428;28;20198;-64
2023/01/23 10:47:18;;;;;;;50.23;25.30;;;3.70;99.90;;;;;;5023861;28;20200;-63
2023/01/23 10:49:47;;;;;;;49.77;23.93;;;3.70;99.90;;;;;;5020455;28;20224;-64
2023/01/23 10:52:36;;;;;;;46.20;23.97;;;3.70;99.90;;;;;;5019868;28;20202;-64
2023/01/23 10:55:06;;;;;;;49.70;23.70;;;3.60;99.90;;;;;;5021193;28;20198;-63
2023/01/23 10:57:47;;;;;;;49.60;23.47;;;3.60;99.90;;;;;;5018942;28;20193;-64
2023/01/23 11:00:22;;;;;;;50.53;23.27;;;3.70;99.90;;;;;;5020531;28;20185;-63
2023/01/23 11:03:34;;;;;;;49.43;24.83;;;3.70;99.90;;;;;;5015282;28;20561;-64
2023/01/23 11:06:05;;;;;;;49.53;23.53;;;3.60;99.90;;;;;;4967798;28;20217;-64
2023/01/23 11:08:37;;;;;;;53.20;24.40;;;3.60;99.90;;;;;;5018344;28;20236;-64
2023/01/23 11:11:21;;;;;;;55.00;25.00;;;3.70;99.90;;;;;;5017074;28;20220;-64
2023/01/23 11:14:01;;;;;;;52.70;24.33;;;3.70;99.90;;;;;;5011805;28;20248;-64
2023/01/23 11:16:31;;;;;;;53.60;25.00;;;3.70;99.90;;;;;;5010431;28;20202;-64
2023/01/23 11:19:11;;;;;;;48.37;24.73;;;3.80;99.90;;;;;;5016796;28;20224;-63
2023/01/23 11:21:51;;;;;;;59.23;26.30;;;3.90;99.90;;;;;;5016219;28;20544;-64
2023/01/23 11:24:30;;;;;;;61.40;27.27;;;3.80;99.90;;;;;;5018937;28;20750;-64
2023/01/23 11:27:18;;;;;;;56.03;25.77;;;3.80;99.90;;;;;;5017134;28;20206;-64
2023/01/23 11:30:19;;;;;;;55.53;26.50;;;3.90;99.90;;;;;;5017953;28;21610;-64
2023/01/23 11:32:53;;;;;;;56.03;25.10;;;3.90;99.90;;;;;;5004762;28;20210;-64
2023/01/23 11:35:34;;;;;;;62.10;26.53;;;3.90;99.90;;;;;;5022437;28;20201;-64
2023/01/23 11:38:04;;;;;;;54.27;26.20;;;4.00;99.90;;;;;;5024130;28;20212;-64
2023/01/23 11:40:34;;;;;;;51.87;25.90;;;4.00;99.90;;;;;;5022149;28;20198;-64
2023/01/23 11:43:02;;;;;;;54.30;25.47;;;4.00;99.90;;;;;;5030305;28;20193;-64
2023/01/23 11:45:38;;;;;;;55.50;25.50;;;4.20;99.90;;;;;;5020835;28;20202;-64
2023/01/23 11:48:24;;;;;;;60.77;27.73;;;4.30;99.90;;;;;;5026998;28;20280;-64
2023/01/23 11:51:00;;;;;;;59.67;27.70;;;4.20;99.90;;;;;;5019760;28;20588;-64
2023/01/23 11:53:34;;;;;;;61.53;29.27;;;4.10;99.90;;;;;;5020351;28;20575;-64
2023/01/23 11:56:45;;;;;;;55.87;25.87;;;4.10;99.90;;;;;;5017237;28;20197;-64
2023/01/23 11:59:53;;;;;;;55.30;26.77;;;4.10;99.90;;;;;;5014960;28;20282;-63
2023/01/23 12:02:57;;;;;;;56.20;26.93;;;4.30;99.90;;;;;;5009899;28;20216;-64
2023/01/23 12:05:51;;;;;;;54.63;24.50;;;4.30;99.90;;;;;;5028678;28;20274;-64
2023/01/23 12:08:28;;;;;;;52.63;25.53;;;4.40;99.90;;;;;;5020446;28;20230;-64
2023/01/23 12:11:12;;;;;;;56.03;25.33;;;4.40;99.90;;;;;;5016086;28;20220;-64
2023/01/23 12:14:04;;;;;;;52.47;25.57;;;4.30;99.90;;;;;;5022893;28;20197;-64
2023/01/23 12:16:47;;;;;;;51.43;23.97;;;4.20;99.90;;;;;;5004947;28;20190;-64
2023/01/23 12:19:27;;;;;;;56.77;26.83;;;4.30;99.90;;;;;;5021339;28;20198;-64
2023/01/23 12:22:05;;;;;;;59.27;25.97;;;4.30;99.90;;;;;;5026714;28;20193;-64
2023/01/23 12:24:46;;;;;;;56.17;26.77;;;4.20;99.90;;;;;;5027617;28;20285;-64
2023/01/23 12:27:22;;;;;;;53.10;24.43;;;4.30;99.90;;;;;;5028477;28;20194;-64
2023/01/23 12:30:12;;;;;;;54.70;25.17;;;4.30;99.90;;;;;;5023909;28;20201;-64
2023/01/23 12:32:56;;;;;;;55.07;25.30;;;4.20;99.90;;;;;;5020529;28;20280;-64
2023/01/23 12:35:33;;;;;;;52.77;24.97;;;4.30;99.90;;;;;;5026082;28;20209;-64
2023/01/23 12:38:22;;;;;;;49.20;24.80;;;4.40;99.90;;;;;;5019128;28;20671;-64
2023/01/23 12:41:07;;;;;;;50.97;24.87;;;4.50;99.90;;;;;;5032857;28;20196;-64
2023/01/23 12:43:40;;;;;;;52.30;25.33;;;4.50;99.90;;;;;;5023216;28;20232;-64
2023/01/23 12:46:15;;;;;;;64.47;27.93;;;4.50;99.90;;;;;;5030517;28;20194;-64
2023/01/23 12:48:47;;;;;;;64.67;28.13;;;4.50;99.90;;;;;;5011660;28;20201;-64
2023/01/23 12:51:21;;;;;;;62.90;29.17;;;4.50;99.90;;;;;;5026366;28;20213;-64
2023/01/23 12:53:55;;;;;;;68.67;28.47;;;4.50;99.90;;;;;;5029747;28;20194;-64
2023/01/23 12:56:29;;;;;;;53.90;25.33;;;4.50;99.90;;;;;;5019483;28;20200;-64
2023/01/23 12:59:07;;;;;;;56.87;26.80;;;4.50;99.90;;;;;;5026018;28;20222;-64
2023/01/23 13:01:55;;;;;;;52.23;26.03;;;4.60;99.90;;;;;;5022764;28;20197;-64
2023/01/23 13:04:37;;;;;;;52.67;24.67;;;4.50;99.90;;;;;;5017209;28;20202;-64